sensor_id;sensor_type;location;lat;lon;timestamp;P1;durP1;ratioP1;P2;durP2;ratioP2
80237;SDS011;69544;42.138;24.742;2023-05-07T00:00:01;5.63;;;3.70;;
80237;SDS011;69544;42.138;24.742;2023-05-07T00:02:27;6.95;;;3.67;;
80237;SDS011;69544;42.138;24.742;2023-05-07T00:04:54;6.65;;;3.78;;
80237;SDS011;69544;42.138;24.742;2023-05-07T00:07:20;5.45;;;3.42;;
80237;SDS011;69544;42.138;24.742;2023-05-07T00:09:46;5.22;;;3.50;;
80237;SDS011;69544;42.138;24.742;2023-05-07T00:12:11;5.22;;;3.42;;
80237;SDS011;69544;42.138;24.742;2023-05-07T00:14:37;6.40;;;3.55;;
80237;SDS011;69544;42.138;24.742;2023-05-07T00:17:03;5.07;;;3.80;;
80237;SDS011;69544;42.138;24.742;2023-05-07T00:19:29;5.30;;;3.63;;
80237;SDS011;69544;42.138;24.742;2023-05-07T00:21:54;5.90;;;3.53;;
80237;SDS011;69544;42.138;24.742;2023-05-07T00:24:21;5.40;;;3.58;;
80237;SDS011;69544;42.138;24.742;2023-05-07T00:26:46;5.35;;;3.60;;
80237;SDS011;69544;42.138;24.742;2023-05-07T00:29:12;6.07;;;3.63;;
80237;SDS011;69544;42.138;24.742;2023-05-07T00:31:38;5.20;;;3.58;;
80237;SDS011;69544;42.138;24.742;2023-05-07T00:34:04;4.75;;;3.50;;
80237;SDS011;69544;42.138;24.742;2023-05-07T00:36:29;5.57;;;3.83;;
80237;SDS011;69544;42.138;24.742;2023-05-07T00:38:56;5.60;;;3.60;;
80237;SDS011;69544;42.138;24.742;2023-05-07T00:41:23;6.18;;;3.80;;
80237;SDS011;69544;42.138;24.742;2023-05-07T00:43:49;6.38;;;3.50;;
80237;SDS011;69544;42.138;24.742;2023-05-07T00:46:16;4.95;;;3.38;;
80237;SDS011;69544;42.138;24.742;2023-05-07T00:48:44;5.68;;;3.55;;
80237;SDS011;69544;42.138;24.742;2023-05-07T00:51:10;7.97;;;3.72;;
80237;SDS011;69544;42.138;24.742;2023-05-07T00:53:36;4.85;;;3.20;;
80237;SDS011;69544;42.138;24.742;2023-05-07T00:56:03;5.10;;;3.40;;
80237;SDS011;69544;42.138;24.742;2023-05-07T00:58:29;5.25;;;3.55;;
80237;SDS011;69544;42.138;24.742;2023-05-07T01:00:56;5.57;;;3.60;;
80237;SDS011;69544;42.138;24.742;2023-05-07T01:03:21;4.55;;;3.28;;
80237;SDS011;69544;42.138;24.742;2023-05-07T01:05:47;5.50;;;3.50;;
80237;SDS011;69544;42.138;24.742;2023-05-07T01:08:14;4.45;;;3.15;;
80237;SDS011;69544;42.138;24.742;2023-05-07T01:10:40;4.60;;;3.30;;
80237;SDS011;69544;42.138;24.742;2023-05-07T01:13:08;5.70;;;3.70;;
80237;SDS011;69544;42.138;24.742;2023-05-07T01:15:35;6.75;;;3.10;;
80237;SDS011;69544;42.138;24.742;2023-05-07T01:18:01;5.50;;;3.60;;
80237;SDS011;69544;42.138;24.742;2023-05-07T01:20:28;7.45;;;3.25;;
80237;SDS011;69544;42.138;24.742;2023-05-07T01:22:54;5.32;;;3.58;;
80237;SDS011;69544;42.138;24.742;2023-05-07T01:25:21;4.38;;;3.15;;
80237;SDS011;69544;42.138;24.742;2023-05-07T01:27:47;6.82;;;3.50;;
80237;SDS011;69544;42.138;24.742;2023-05-07T01:30:13;4.90;;;3.33;;
80237;SDS011;69544;42.138;24.742;2023-05-07T01:32:50;5.45;;;3.20;;
80237;SDS011;69544;42.138;24.742;2023-05-07T01:35:22;5.15;;;3.20;;
80237;SDS011;69544;42.138;24.742;2023-05-07T01:37:51;6.22;;;3.58;;
80237;SDS011;69544;42.138;24.742;2023-05-07T01:40:18;6.05;;;3.30;;
80237;SDS011;69544;42.138;24.742;2023-05-07T01:42:44;4.63;;;3.00;;
80237;SDS011;69544;42.138;24.742;2023-05-07T01:45:11;5.30;;;3.50;;
80237;SDS011;69544;42.138;24.742;2023-05-07T01:47:37;5.60;;;3.33;;
80237;SDS011;69544;42.138;24.742;2023-05-07T01:50:04;4.90;;;3.40;;
80237;SDS011;69544;42.138;24.742;2023-05-07T01:52:31;5.45;;;3.20;;
80237;SDS011;69544;42.138;24.742;2023-05-07T01:54:57;6.28;;;3.47;;
80237;SDS011;69544;42.138;24.742;2023-05-07T01:57:22;5.82;;;3.40;;
80237;SDS011;69544;42.138;24.742;2023-05-07T01:59:48;5.15;;;3.45;;
80237;SDS011;69544;42.138;24.742;2023-05-07T02:02:14;5.20;;;3.60;;
80237;SDS011;69544;42.138;24.742;2023-05-07T02:04:40;8.30;;;3.33;;
80237;SDS011;69544;42.138;24.742;2023-05-07T02:07:06;6.00;;;3.15;;
80237;SDS011;69544;42.138;24.742;2023-05-07T02:09:31;5.43;;;3.40;;
80237;SDS011;69544;42.138;24.742;2023-05-07T02:11:57;5.00;;;3.35;;
80237;SDS011;69544;42.138;24.742;2023-05-07T02:14:23;5.40;;;3.50;;
80237;SDS011;69544;42.138;24.742;2023-05-07T02:16:48;4.95;;;3.40;;
80237;SDS011;69544;42.138;24.742;2023-05-07T02:19:14;5.13;;;3.50;;
80237;SDS011;69544;42.138;24.742;2023-05-07T02:21:40;5.82;;;3.40;;
80237;SDS011;69544;42.138;24.742;2023-05-07T02:24:08;5.93;;;3.28;;
80237;SDS011;69544;42.138;24.742;2023-05-07T02:26:34;4.75;;;3.40;;
80237;SDS011;69544;42.138;24.742;2023-05-07T02:29:00;5.53;;;3.33;;
80237;SDS011;69544;42.138;24.742;2023-05-07T02:31:26;5.40;;;3.53;;
80237;SDS011;69544;42.138;24.742;2023-05-07T02:33:51;4.55;;;3.38;;
80237;SDS011;69544;42.138;24.742;2023-05-07T02:36:17;5.32;;;3.53;;
80237;SDS011;69544;42.138;24.742;2023-05-07T02:38:43;6.18;;;3.38;;
80237;SDS011;69544;42.138;24.742;2023-05-07T02:41:08;5.63;;;3.60;;
80237;SDS011;69544;42.138;24.742;2023-05-07T02:43:34;4.72;;;3.42;;
80237;SDS011;69544;42.138;24.742;2023-05-07T02:46:03;5.25;;;3.22;;
80237;SDS011;69544;42.138;24.742;2023-05-07T02:48:31;5.80;;;3.47;;
80237;SDS011;69544;42.138;24.742;2023-05-07T02:50:57;4.95;;;3.20;;
80237;SDS011;69544;42.138;24.742;2023-05-07T02:53:23;4.85;;;3.40;;
80237;SDS011;69544;42.138;24.742;2023-05-07T02:55:51;5.20;;;3.58;;
80237;SDS011;69544;42.138;24.742;2023-05-07T02:58:18;6.05;;;3.42;;
80237;SDS011;69544;42.138;24.742;2023-05-07T03:00:44;6.40;;;3.83;;
80237;SDS011;69544;42.138;24.742;2023-05-07T03:03:09;5.35;;;3.40;;
80237;SDS011;69544;42.138;24.742;2023-05-07T03:05:35;6.10;;;3.60;;
80237;SDS011;69544;42.138;24.742;2023-05-07T03:08:02;5.43;;;3.65;;
80237;SDS011;69544;42.138;24.742;2023-05-07T03:10:29;5.18;;;3.50;;
80237;SDS011;69544;42.138;24.742;2023-05-07T03:12:55;4.40;;;3.20;;
80237;SDS011;69544;42.138;24.742;2023-05-07T03:15:20;5.50;;;3.28;;
80237;SDS011;69544;42.138;24.742;2023-05-07T03:17:47;5.63;;;3.40;;
80237;SDS011;69544;42.138;24.742;2023-05-07T03:20:13;6.07;;;3.40;;
80237;SDS011;69544;42.138;24.742;2023-05-07T03:22:38;7.78;;;3.90;;
80237;SDS011;69544;42.138;24.742;2023-05-07T03:25:04;5.35;;;3.53;;
80237;SDS011;69544;42.138;24.742;2023-05-07T03:27:31;5.90;;;3.50;;
80237;SDS011;69544;42.138;24.742;2023-05-07T03:29:57;5.43;;;3.53;;
80237;SDS011;69544;42.138;24.742;2023-05-07T03:32:22;5.45;;;3.50;;
80237;SDS011;69544;42.138;24.742;2023-05-07T03:34:48;5.32;;;3.70;;
80237;SDS011;69544;42.138;24.742;2023-05-07T03:37:14;5.50;;;3.40;;
80237;SDS011;69544;42.138;24.742;2023-05-07T03:39:40;4.85;;;3.60;;
80237;SDS011;69544;42.138;24.742;2023-05-07T03:42:05;5.22;;;3.30;;
80237;SDS011;69544;42.138;24.742;2023-05-07T03:44:31;6.00;;;3.67;;
80237;SDS011;69544;42.138;24.742;2023-05-07T03:46:57;6.05;;;3.75;;
80237;SDS011;69544;42.138;24.742;2023-05-07T03:49:23;5.10;;;3.55;;
80237;SDS011;69544;42.138;24.742;2023-05-07T03:51:48;5.45;;;3.67;;
80237;SDS011;69544;42.138;24.742;2023-05-07T03:54:14;5.20;;;3.65;;
80237;SDS011;69544;42.138;24.742;2023-05-07T03:56:40;7.82;;;3.95;;
80237;SDS011;69544;42.138;24.742;2023-05-07T03:59:06;5.22;;;3.60;;
80237;SDS011;69544;42.138;24.742;2023-05-07T04:01:31;5.88;;;3.65;;
80237;SDS011;69544;42.138;24.742;2023-05-07T04:03:57;7.15;;;3.60;;
80237;SDS011;69544;42.138;24.742;2023-05-07T04:06:23;9.73;;;3.78;;
80237;SDS011;69544;42.138;24.742;2023-05-07T04:08:49;5.43;;;3.80;;
80237;SDS011;69544;42.138;24.742;2023-05-07T04:11:15;5.60;;;3.28;;
80237;SDS011;69544;42.138;24.742;2023-05-07T04:13:40;5.55;;;3.58;;
80237;SDS011;69544;42.138;24.742;2023-05-07T04:16:06;7.45;;;3.50;;
80237;SDS011;69544;42.138;24.742;2023-05-07T04:18:32;5.90;;;3.40;;
80237;SDS011;69544;42.138;24.742;2023-05-07T04:20:58;5.85;;;3.42;;
80237;SDS011;69544;42.138;24.742;2023-05-07T04:23:24;5.90;;;3.70;;
80237;SDS011;69544;42.138;24.742;2023-05-07T04:25:50;5.90;;;3.80;;
80237;SDS011;69544;42.138;24.742;2023-05-07T04:28:16;5.50;;;3.65;;
80237;SDS011;69544;42.138;24.742;2023-05-07T04:30:41;6.15;;;3.70;;
80237;SDS011;69544;42.138;24.742;2023-05-07T04:33:07;6.72;;;3.85;;
80237;SDS011;69544;42.138;24.742;2023-05-07T04:35:33;6.20;;;3.70;;
80237;SDS011;69544;42.138;24.742;2023-05-07T04:38:00;5.90;;;3.67;;
80237;SDS011;69544;42.138;24.742;2023-05-07T04:40:26;6.50;;;3.90;;
80237;SDS011;69544;42.138;24.742;2023-05-07T04:42:52;6.28;;;3.85;;
80237;SDS011;69544;42.138;24.742;2023-05-07T04:45:18;5.57;;;3.55;;
80237;SDS011;69544;42.138;24.742;2023-05-07T04:47:44;5.88;;;3.85;;
80237;SDS011;69544;42.138;24.742;2023-05-07T04:50:10;5.07;;;3.70;;
80237;SDS011;69544;42.138;24.742;2023-05-07T04:52:35;5.80;;;3.70;;
80237;SDS011;69544;42.138;24.742;2023-05-07T04:55:01;5.18;;;3.50;;
80237;SDS011;69544;42.138;24.742;2023-05-07T04:57:27;9.32;;;3.92;;
80237;SDS011;69544;42.138;24.742;2023-05-07T04:59:53;5.47;;;3.78;;
80237;SDS011;69544;42.138;24.742;2023-05-07T05:02:19;5.15;;;3.63;;
80237;SDS011;69544;42.138;24.742;2023-05-07T05:04:45;6.57;;;4.00;;
80237;SDS011;69544;42.138;24.742;2023-05-07T05:07:11;5.72;;;3.53;;
80237;SDS011;69544;42.138;24.742;2023-05-07T05:09:37;5.38;;;3.85;;
80237;SDS011;69544;42.138;24.742;2023-05-07T05:12:02;5.38;;;3.65;;
80237;SDS011;69544;42.138;24.742;2023-05-07T05:14:29;6.13;;;3.90;;
80237;SDS011;69544;42.138;24.742;2023-05-07T05:16:54;7.10;;;3.78;;
80237;SDS011;69544;42.138;24.742;2023-05-07T05:19:20;5.55;;;3.78;;
80237;SDS011;69544;42.138;24.742;2023-05-07T05:21:46;8.77;;;4.30;;
80237;SDS011;69544;42.138;24.742;2023-05-07T05:24:12;6.60;;;4.00;;
80237;SDS011;69544;42.138;24.742;2023-05-07T05:26:38;6.20;;;3.97;;
80237;SDS011;69544;42.138;24.742;2023-05-07T05:29:04;5.22;;;3.65;;
80237;SDS011;69544;42.138;24.742;2023-05-07T05:31:29;6.47;;;3.80;;
80237;SDS011;69544;42.138;24.742;2023-05-07T05:33:55;5.57;;;3.80;;
80237;SDS011;69544;42.138;24.742;2023-05-07T05:36:21;6.18;;;3.70;;
80237;SDS011;69544;42.138;24.742;2023-05-07T05:38:47;7.47;;;3.90;;
80237;SDS011;69544;42.138;24.742;2023-05-07T05:41:13;5.70;;;3.60;;
80237;SDS011;69544;42.138;24.742;2023-05-07T05:43:39;6.82;;;4.00;;
80237;SDS011;69544;42.138;24.742;2023-05-07T05:46:04;4.50;;;3.40;;
80237;SDS011;69544;42.138;24.742;2023-05-07T05:48:31;5.30;;;3.80;;
80237;SDS011;69544;42.138;24.742;2023-05-07T05:50:56;5.20;;;3.50;;
80237;SDS011;69544;42.138;24.742;2023-05-07T05:53:22;6.20;;;3.80;;
80237;SDS011;69544;42.138;24.742;2023-05-07T05:55:48;6.50;;;3.53;;
80237;SDS011;69544;42.138;24.742;2023-05-07T05:58:14;5.68;;;3.92;;
80237;SDS011;69544;42.138;24.742;2023-05-07T06:00:40;5.75;;;3.67;;
80237;SDS011;69544;42.138;24.742;2023-05-07T06:03:06;5.88;;;4.18;;
80237;SDS011;69544;42.138;24.742;2023-05-07T06:05:31;6.28;;;3.90;;
80237;SDS011;69544;42.138;24.742;2023-05-07T06:07:57;6.70;;;3.58;;
80237;SDS011;69544;42.138;24.742;2023-05-07T06:10:23;4.90;;;3.55;;
80237;SDS011;69544;42.138;24.742;2023-05-07T06:12:49;7.15;;;4.00;;
80237;SDS011;69544;42.138;24.742;2023-05-07T06:15:15;5.85;;;3.88;;
80237;SDS011;69544;42.138;24.742;2023-05-07T06:17:40;8.18;;;3.90;;
80237;SDS011;69544;42.138;24.742;2023-05-07T06:20:06;4.72;;;3.60;;
80237;SDS011;69544;42.138;24.742;2023-05-07T06:22:32;5.60;;;3.75;;
80237;SDS011;69544;42.138;24.742;2023-05-07T06:25:01;6.15;;;3.80;;
80237;SDS011;69544;42.138;24.742;2023-05-07T06:27:27;5.93;;;3.80;;
80237;SDS011;69544;42.138;24.742;2023-05-07T06:29:53;8.90;;;3.85;;
80237;SDS011;69544;42.138;24.742;2023-05-07T06:32:19;6.00;;;3.70;;
80237;SDS011;69544;42.138;24.742;2023-05-07T06:34:45;5.00;;;3.47;;
80237;SDS011;69544;42.138;24.742;2023-05-07T06:37:11;6.80;;;3.70;;
80237;SDS011;69544;42.138;24.742;2023-05-07T06:39:37;6.65;;;3.95;;
80237;SDS011;69544;42.138;24.742;2023-05-07T06:42:02;5.72;;;3.70;;
80237;SDS011;69544;42.138;24.742;2023-05-07T06:44:29;5.72;;;3.70;;
80237;SDS011;69544;42.138;24.742;2023-05-07T06:46:56;6.47;;;3.60;;
80237;SDS011;69544;42.138;24.742;2023-05-07T06:49:25;6.78;;;3.95;;
80237;SDS011;69544;42.138;24.742;2023-05-07T06:51:50;4.88;;;3.40;;
80237;SDS011;69544;42.138;24.742;2023-05-07T06:54:20;5.85;;;3.83;;
80237;SDS011;69544;42.138;24.742;2023-05-07T06:56:46;7.07;;;3.90;;
80237;SDS011;69544;42.138;24.742;2023-05-07T06:59:12;5.13;;;3.60;;
80237;SDS011;69544;42.138;24.742;2023-05-07T07:01:40;6.43;;;3.60;;
80237;SDS011;69544;42.138;24.742;2023-05-07T07:04:06;6.22;;;3.92;;
80237;SDS011;69544;42.138;24.742;2023-05-07T07:06:32;5.75;;;3.90;;
80237;SDS011;69544;42.138;24.742;2023-05-07T07:08:58;5.80;;;3.88;;
80237;SDS011;69544;42.138;24.742;2023-05-07T07:11:25;4.93;;;3.50;;
80237;SDS011;69544;42.138;24.742;2023-05-07T07:13:51;6.30;;;3.67;;
80237;SDS011;69544;42.138;24.742;2023-05-07T07:16:19;5.30;;;3.63;;
80237;SDS011;69544;42.138;24.742;2023-05-07T07:18:45;6.93;;;3.65;;
80237;SDS011;69544;42.138;24.742;2023-05-07T07:21:11;7.00;;;3.80;;
80237;SDS011;69544;42.138;24.742;2023-05-07T07:23:38;5.55;;;3.70;;
80237;SDS011;69544;42.138;24.742;2023-05-07T07:26:04;6.10;;;3.85;;
80237;SDS011;69544;42.138;24.742;2023-05-07T07:28:31;6.70;;;3.92;;
80237;SDS011;69544;42.138;24.742;2023-05-07T07:30:56;6.85;;;3.50;;
80237;SDS011;69544;42.138;24.742;2023-05-07T07:33:22;5.30;;;3.75;;
80237;SDS011;69544;42.138;24.742;2023-05-07T07:35:48;7.85;;;3.90;;
80237;SDS011;69544;42.138;24.742;2023-05-07T07:38:14;5.30;;;3.65;;
80237;SDS011;69544;42.138;24.742;2023-05-07T07:40:39;5.85;;;3.50;;
80237;SDS011;69544;42.138;24.742;2023-05-07T07:43:05;6.60;;;3.60;;
80237;SDS011;69544;42.138;24.742;2023-05-07T07:45:31;6.43;;;3.80;;
80237;SDS011;69544;42.138;24.742;2023-05-07T07:47:57;6.15;;;3.78;;
80237;SDS011;69544;42.138;24.742;2023-05-07T07:50:22;5.28;;;3.75;;
80237;SDS011;69544;42.138;24.742;2023-05-07T07:52:48;6.50;;;4.00;;
80237;SDS011;69544;42.138;24.742;2023-05-07T07:55:14;6.30;;;3.95;;
80237;SDS011;69544;42.138;24.742;2023-05-07T08:00:11;5.88;;;4.15;;
80237;SDS011;69544;42.138;24.742;2023-05-07T08:02:37;6.45;;;3.88;;
80237;SDS011;69544;42.138;24.742;2023-05-07T08:05:03;5.53;;;3.88;;
80237;SDS011;69544;42.138;24.742;2023-05-07T08:07:29;6.03;;;4.00;;
80237;SDS011;69544;42.138;24.742;2023-05-07T08:09:55;8.02;;;3.90;;
80237;SDS011;69544;42.138;24.742;2023-05-07T08:12:21;9.43;;;4.22;;
80237;SDS011;69544;42.138;24.742;2023-05-07T08:14:47;7.03;;;3.90;;
80237;SDS011;69544;42.138;24.742;2023-05-07T08:17:13;6.95;;;3.85;;
80237;SDS011;69544;42.138;24.742;2023-05-07T08:19:41;8.50;;;3.72;;
80237;SDS011;69544;42.138;24.742;2023-05-07T08:22:07;6.28;;;3.80;;
80237;SDS011;69544;42.138;24.742;2023-05-07T08:24:34;5.53;;;3.50;;
80237;SDS011;69544;42.138;24.742;2023-05-07T08:26:59;5.35;;;3.63;;
80237;SDS011;69544;42.138;24.742;2023-05-07T08:29:25;6.18;;;3.85;;
80237;SDS011;69544;42.138;24.742;2023-05-07T08:31:51;6.07;;;3.53;;
80237;SDS011;69544;42.138;24.742;2023-05-07T08:34:17;4.82;;;3.53;;
80237;SDS011;69544;42.138;24.742;2023-05-07T08:36:42;5.32;;;3.67;;
80237;SDS011;69544;42.138;24.742;2023-05-07T08:39:08;4.70;;;3.38;;
80237;SDS011;69544;42.138;24.742;2023-05-07T08:41:34;5.90;;;3.80;;
80237;SDS011;69544;42.138;24.742;2023-05-07T08:44:00;5.38;;;3.47;;
80237;SDS011;69544;42.138;24.742;2023-05-07T08:46:30;5.55;;;3.90;;
80237;SDS011;69544;42.138;24.742;2023-05-07T08:48:57;7.63;;;4.13;;
80237;SDS011;69544;42.138;24.742;2023-05-07T08:51:23;5.60;;;3.60;;
80237;SDS011;69544;42.138;24.742;2023-05-07T08:53:49;6.43;;;4.00;;
80237;SDS011;69544;42.138;24.742;2023-05-07T08:56:15;5.70;;;3.63;;
80237;SDS011;69544;42.138;24.742;2023-05-07T08:58:42;4.97;;;3.50;;
80237;SDS011;69544;42.138;24.742;2023-05-07T09:01:09;6.45;;;3.78;;
80237;SDS011;69544;42.138;24.742;2023-05-07T09:03:38;4.68;;;3.42;;
80237;SDS011;69544;42.138;24.742;2023-05-07T09:06:05;6.25;;;3.90;;
80237;SDS011;69544;42.138;24.742;2023-05-07T09:08:32;5.35;;;3.70;;
80237;SDS011;69544;42.138;24.742;2023-05-07T09:10:59;5.25;;;3.60;;
80237;SDS011;69544;42.138;24.742;2023-05-07T09:13:25;6.50;;;3.38;;
80237;SDS011;69544;42.138;24.742;2023-05-07T09:15:52;5.55;;;3.67;;
80237;SDS011;69544;42.138;24.742;2023-05-07T09:18:17;5.10;;;3.03;;
80237;SDS011;69544;42.138;24.742;2023-05-07T09:20:43;6.35;;;3.47;;
80237;SDS011;69544;42.138;24.742;2023-05-07T09:23:09;4.88;;;3.60;;
80237;SDS011;69544;42.138;24.742;2023-05-07T09:25:35;5.20;;;3.42;;
80237;SDS011;69544;42.138;24.742;2023-05-07T09:28:02;7.78;;;3.58;;
80237;SDS011;69544;42.138;24.742;2023-05-07T09:30:32;5.10;;;3.47;;
80237;SDS011;69544;42.138;24.742;2023-05-07T09:32:59;5.05;;;3.50;;
80237;SDS011;69544;42.138;24.742;2023-05-07T09:35:26;4.75;;;3.15;;
80237;SDS011;69544;42.138;24.742;2023-05-07T09:37:53;4.40;;;3.42;;
80237;SDS011;69544;42.138;24.742;2023-05-07T09:40:23;5.47;;;3.50;;
80237;SDS011;69544;42.138;24.742;2023-05-07T09:42:50;5.32;;;3.28;;
80237;SDS011;69544;42.138;24.742;2023-05-07T09:45:16;5.32;;;3.40;;
80237;SDS011;69544;42.138;24.742;2023-05-07T09:47:56;5.57;;;3.65;;
80237;SDS011;69544;42.138;24.742;2023-05-07T09:50:26;5.05;;;3.65;;
80237;SDS011;69544;42.138;24.742;2023-05-07T09:52:54;5.80;;;3.60;;
80237;SDS011;69544;42.138;24.742;2023-05-07T09:55:21;4.65;;;3.42;;
80237;SDS011;69544;42.138;24.742;2023-05-07T09:57:49;4.97;;;3.50;;
80237;SDS011;69544;42.138;24.742;2023-05-07T10:00:17;4.88;;;3.40;;
80237;SDS011;69544;42.138;24.742;2023-05-07T10:02:45;5.10;;;3.55;;
80237;SDS011;69544;42.138;24.742;2023-05-07T10:05:14;5.93;;;3.50;;
80237;SDS011;69544;42.138;24.742;2023-05-07T10:07:40;3.83;;;3.10;;
80237;SDS011;69544;42.138;24.742;2023-05-07T10:10:06;5.63;;;3.40;;
80237;SDS011;69544;42.138;24.742;2023-05-07T10:12:33;4.88;;;3.10;;
80237;SDS011;69544;42.138;24.742;2023-05-07T10:15:05;4.35;;;3.38;;
80237;SDS011;69544;42.138;24.742;2023-05-07T10:17:35;5.40;;;3.20;;
80237;SDS011;69544;42.138;24.742;2023-05-07T10:20:04;5.90;;;3.10;;
80237;SDS011;69544;42.138;24.742;2023-05-07T10:22:32;5.90;;;3.20;;
80237;SDS011;69544;42.138;24.742;2023-05-07T10:25:12;5.35;;;3.40;;
80237;SDS011;69544;42.138;24.742;2023-05-07T10:27:43;6.53;;;3.17;;
80237;SDS011;69544;42.138;24.742;2023-05-07T10:30:14;4.55;;;3.03;;
80237;SDS011;69544;42.138;24.742;2023-05-07T10:33:01;5.55;;;3.15;;
80237;SDS011;69544;42.138;24.742;2023-05-07T10:35:39;5.22;;;3.00;;
80237;SDS011;69544;42.138;24.742;2023-05-07T10:38:07;4.28;;;3.15;;
80237;SDS011;69544;42.138;24.742;2023-05-07T10:40:34;5.55;;;3.45;;
80237;SDS011;69544;42.138;24.742;2023-05-07T10:43:01;5.75;;;3.50;;
80237;SDS011;69544;42.138;24.742;2023-05-07T10:48:16;5.30;;;3.40;;
80237;SDS011;69544;42.138;24.742;2023-05-07T10:50:42;4.75;;;3.20;;
80237;SDS011;69544;42.138;24.742;2023-05-07T10:55:48;6.47;;;3.30;;
80237;SDS011;69544;42.138;24.742;2023-05-07T11:00:46;6.15;;;2.95;;
80237;SDS011;69544;42.138;24.742;2023-05-07T11:03:13;4.57;;;3.28;;
80237;SDS011;69544;42.138;24.742;2023-05-07T11:05:40;4.20;;;3.17;;
80237;SDS011;69544;42.138;24.742;2023-05-07T11:08:07;4.88;;;3.33;;
80237;SDS011;69544;42.138;24.742;2023-05-07T11:10:50;4.50;;;3.10;;
80237;SDS011;69544;42.138;24.742;2023-05-07T11:13:17;3.90;;;3.05;;
80237;SDS011;69544;42.138;24.742;2023-05-07T11:15:47;4.15;;;2.95;;
80237;SDS011;69544;42.138;24.742;2023-05-07T11:18:14;4.15;;;3.10;;
80237;SDS011;69544;42.138;24.742;2023-05-07T11:28:28;4.60;;;3.10;;
80237;SDS011;69544;42.138;24.742;2023-05-07T11:30:54;4.53;;;3.30;;
80237;SDS011;69544;42.138;24.742;2023-05-07T11:33:22;5.15;;;3.40;;
80237;SDS011;69544;42.138;24.742;2023-05-07T11:35:48;3.70;;;2.88;;
80237;SDS011;69544;42.138;24.742;2023-05-07T11:38:15;4.13;;;2.90;;
80237;SDS011;69544;42.138;24.742;2023-05-07T11:40:49;3.85;;;3.05;;
80237;SDS011;69544;42.138;24.742;2023-05-07T11:43:16;4.10;;;3.20;;
80237;SDS011;69544;42.138;24.742;2023-05-07T11:45:42;3.92;;;2.90;;
80237;SDS011;69544;42.138;24.742;2023-05-07T11:48:09;4.20;;;2.95;;
80237;SDS011;69544;42.138;24.742;2023-05-07T11:50:35;4.78;;;3.30;;
80237;SDS011;69544;42.138;24.742;2023-05-07T11:53:07;3.65;;;2.80;;
80237;SDS011;69544;42.138;24.742;2023-05-07T11:55:33;3.90;;;3.05;;
80237;SDS011;69544;42.138;24.742;2023-05-07T11:57:58;3.58;;;2.85;;
80237;SDS011;69544;42.138;24.742;2023-05-07T12:00:24;3.42;;;2.78;;
80237;SDS011;69544;42.138;24.742;2023-05-07T12:02:50;4.07;;;3.08;;
80237;SDS011;69544;42.138;24.742;2023-05-07T12:05:16;3.42;;;2.72;;
80237;SDS011;69544;42.138;24.742;2023-05-07T12:07:42;3.70;;;2.92;;
80237;SDS011;69544;42.138;24.742;2023-05-07T12:10:07;3.80;;;2.95;;
80237;SDS011;69544;42.138;24.742;2023-05-07T12:12:39;5.10;;;2.95;;
80237;SDS011;69544;42.138;24.742;2023-05-07T12:15:07;3.80;;;2.93;;
80237;SDS011;69544;42.138;24.742;2023-05-07T12:17:33;3.53;;;2.75;;
80237;SDS011;69544;42.138;24.742;2023-05-07T12:19:59;3.70;;;2.80;;
80237;SDS011;69544;42.138;24.742;2023-05-07T12:22:25;3.80;;;2.92;;
80237;SDS011;69544;42.138;24.742;2023-05-07T12:24:57;3.63;;;2.72;;
80237;SDS011;69544;42.138;24.742;2023-05-07T12:27:25;3.65;;;2.78;;
80237;SDS011;69544;42.138;24.742;2023-05-07T12:29:51;4.15;;;3.05;;
80237;SDS011;69544;42.138;24.742;2023-05-07T12:32:17;3.53;;;2.85;;
80237;SDS011;69544;42.138;24.742;2023-05-07T12:34:44;3.90;;;2.83;;
80237;SDS011;69544;42.138;24.742;2023-05-07T12:37:11;3.67;;;2.70;;
80237;SDS011;69544;42.138;24.742;2023-05-07T12:39:37;3.50;;;2.80;;
80237;SDS011;69544;42.138;24.742;2023-05-07T12:42:08;2.92;;;2.40;;
80237;SDS011;69544;42.138;24.742;2023-05-07T12:44:51;3.92;;;3.00;;
80237;SDS011;69544;42.138;24.742;2023-05-07T12:47:17;3.80;;;2.80;;
80237;SDS011;69544;42.138;24.742;2023-05-07T12:49:43;3.78;;;2.72;;
80237;SDS011;69544;42.138;24.742;2023-05-07T12:52:10;3.47;;;2.95;;
80237;SDS011;69544;42.138;24.742;2023-05-07T12:54:37;3.33;;;2.70;;
80237;SDS011;69544;42.138;24.742;2023-05-07T12:57:10;4.80;;;2.90;;
80237;SDS011;69544;42.138;24.742;2023-05-07T12:59:36;3.97;;;2.75;;
80237;SDS011;69544;42.138;24.742;2023-05-07T13:02:03;3.42;;;2.80;;
80237;SDS011;69544;42.138;24.742;2023-05-07T13:04:29;3.13;;;2.60;;
80237;SDS011;69544;42.138;24.742;2023-05-07T13:06:55;3.33;;;2.60;;
80237;SDS011;69544;42.138;24.742;2023-05-07T13:09:21;3.33;;;2.67;;
80237;SDS011;69544;42.138;24.742;2023-05-07T13:11:47;3.63;;;2.83;;
80237;SDS011;69544;42.138;24.742;2023-05-07T13:14:12;2.80;;;2.50;;
80237;SDS011;69544;42.138;24.742;2023-05-07T13:16:38;3.60;;;2.45;;
80237;SDS011;69544;42.138;24.742;2023-05-07T13:19:04;3.65;;;2.65;;
80237;SDS011;69544;42.138;24.742;2023-05-07T13:21:30;3.15;;;2.53;;
80237;SDS011;69544;42.138;24.742;2023-05-07T13:23:58;3.55;;;2.60;;
80237;SDS011;69544;42.138;24.742;2023-05-07T13:26:25;3.42;;;2.67;;
80237;SDS011;69544;42.138;24.742;2023-05-07T13:28:51;3.00;;;2.50;;
80237;SDS011;69544;42.138;24.742;2023-05-07T13:31:20;3.20;;;2.50;;
80237;SDS011;69544;42.138;24.742;2023-05-07T13:33:46;3.50;;;2.70;;
80237;SDS011;69544;42.138;24.742;2023-05-07T13:36:12;2.95;;;2.55;;
80237;SDS011;69544;42.138;24.742;2023-05-07T13:38:38;3.40;;;2.63;;
80237;SDS011;69544;42.138;24.742;2023-05-07T13:41:04;3.50;;;2.65;;
80237;SDS011;69544;42.138;24.742;2023-05-07T13:43:30;3.75;;;2.45;;
80237;SDS011;69544;42.138;24.742;2023-05-07T13:45:58;3.15;;;2.47;;
80237;SDS011;69544;42.138;24.742;2023-05-07T13:48:24;3.75;;;2.78;;
80237;SDS011;69544;42.138;24.742;2023-05-07T13:50:50;3.83;;;2.70;;
80237;SDS011;69544;42.138;24.742;2023-05-07T13:53:16;3.67;;;2.70;;
80237;SDS011;69544;42.138;24.742;2023-05-07T13:55:43;3.30;;;2.67;;
80237;SDS011;69544;42.138;24.742;2023-05-07T13:58:10;3.28;;;2.63;;
80237;SDS011;69544;42.138;24.742;2023-05-07T14:00:38;3.60;;;2.47;;
80237;SDS011;69544;42.138;24.742;2023-05-07T14:03:05;3.35;;;2.40;;
80237;SDS011;69544;42.138;24.742;2023-05-07T14:05:33;3.30;;;2.60;;
80237;SDS011;69544;42.138;24.742;2023-05-07T14:08:00;3.22;;;2.50;;
80237;SDS011;69544;42.138;24.742;2023-05-07T14:10:26;3.20;;;2.55;;
80237;SDS011;69544;42.138;24.742;2023-05-07T14:12:52;3.03;;;2.50;;
80237;SDS011;69544;42.138;24.742;2023-05-07T14:15:18;3.70;;;2.70;;
80237;SDS011;69544;42.138;24.742;2023-05-07T14:17:43;3.08;;;2.40;;
80237;SDS011;69544;42.138;24.742;2023-05-07T14:20:09;2.83;;;2.38;;
80237;SDS011;69544;42.138;24.742;2023-05-07T14:22:36;4.35;;;2.42;;
80237;SDS011;69544;42.138;24.742;2023-05-07T14:25:02;2.63;;;2.28;;
80237;SDS011;69544;42.138;24.742;2023-05-07T14:27:28;3.63;;;2.40;;
80237;SDS011;69544;42.138;24.742;2023-05-07T14:29:54;3.95;;;2.50;;
80237;SDS011;69544;42.138;24.742;2023-05-07T14:32:20;3.90;;;2.50;;
80237;SDS011;69544;42.138;24.742;2023-05-07T14:34:46;2.55;;;2.33;;
80237;SDS011;69544;42.138;24.742;2023-05-07T14:37:12;2.45;;;2.25;;
80237;SDS011;69544;42.138;24.742;2023-05-07T14:39:38;3.20;;;2.53;;
80237;SDS011;69544;42.138;24.742;2023-05-07T14:42:04;3.78;;;2.67;;
80237;SDS011;69544;42.138;24.742;2023-05-07T14:44:32;2.55;;;2.10;;
80237;SDS011;69544;42.138;24.742;2023-05-07T14:47:01;5.38;;;2.60;;